Time;durP1;ratioP1;P1;durP2;ratioP2;P2;SDS_P1;SDS_P2;PMS_P1;PMS_P2;Temp;Humidity;BMP_temperature;BMP_pressure;BME280_temperature;BME280_humidity;BME280_pressure;Samples;Min_cycle;Max_cycle;Signal;HPM_P1;HPM_P2
2022/03/01 00:00:15;;;;;;;19.43;14.37;;;;;;;;;;6157134;23;20176;-84
2022/03/01 00:02:44;;;;;;;19.13;14.17;;;;;;;;;;6131650;23;20191;-85
2022/03/01 00:05:13;;;;;;;17.50;15.63;;;;;;;;;;6155892;23;20172;-85
2022/03/01 00:07:41;;;;;;;17.80;15.30;;;;;;;;;;6155784;23;20176;-85
2022/03/01 00:10:10;;;;;;;20.67;15.13;;;;;;;;;;6131204;23;20172;-84
2022/03/01 00:12:39;;;;;;;19.63;16.40;;;;;;;;;;6131546;23;20202;-85
2022/03/01 00:15:09;;;;;;;20.70;17.57;;;;;;;;;;6155877;23;20207;-84
2022/03/01 00:17:55;;;;;;;22.30;16.77;;;;;;;;;;6157276;23;20168;-85
2022/03/01 00:20:23;;;;;;;19.37;13.53;;;;;;;;;;6131587;23;20175;-84
2022/03/01 00:22:52;;;;;;;17.67;12.93;;;;;;;;;;6130946;23;20172;-85
2022/03/01 00:25:37;;;;;;;20.97;17.43;;;;;;;;;;6130897;23;20182;-85
2022/03/01 00:28:06;;;;;;;22.13;17.03;;;;;;;;;;6157179;23;20251;-84
2022/03/01 00:30:37;;;;;;;17.73;15.07;;;;;;;;;;6131129;23;20175;-85
2022/03/01 00:33:23;;;;;;;20.90;16.33;;;;;;;;;;6130553;23;20214;-85
2022/03/01 00:35:52;;;;;;;19.50;16.07;;;;;;;;;;6157028;23;20179;-85
2022/03/01 00:38:20;;;;;;;21.93;16.93;;;;;;;;;;6131915;23;20181;-85
2022/03/01 00:40:48;;;;;;;16.97;15.17;;;;;;;;;;6157261;23;20179;-85
2022/03/01 00:43:17;;;;;;;17.73;13.53;;;;;;;;;;6156845;23;20207;-84
2022/03/01 00:46:04;;;;;;;22.83;18.17;;;;;;;;;;6130299;23;20203;-84
2022/03/01 00:48:33;;;;;;;20.10;17.23;;;;;;;;;;6156823;23;20180;-84
2022/03/01 00:51:19;;;;;;;17.47;13.37;;;;;;;;;;6131036;23;20183;-85
2022/03/01 00:53:47;;;;;;;13.43;8.87;;;;;;;;;;6131186;23;20239;-85
2022/03/01 00:56:16;;;;;;;16.97;14.53;;;;;;;;;;6130609;23;20183;-85
2022/03/01 00:58:44;;;;;;;19.30;15.33;;;;;;;;;;6130976;23;20180;-85
2022/03/01 01:01:31;;;;;;;20.33;14.30;;;;;;;;;;6130758;23;20215;-84
2022/03/01 01:04:00;;;;;;;18.80;13.50;;;;;;;;;;6131178;23;20188;-84
2022/03/01 01:06:28;;;;;;;20.30;18.20;;;;;;;;;;6130831;23;20190;-84
2022/03/01 01:08:57;;;;;;;21.30;16.97;;;;;;;;;;6131223;23;20179;-84
2022/03/01 01:11:25;;;;;;;19.87;17.73;;;;;;;;;;6155599;23;20180;-85
2022/03/01 01:13:54;;;;;;;11.80;7.13;;;;;;;;;;6130739;23;20199;-84
2022/03/01 01:16:22;;;;;;;17.03;12.30;;;;;;;;;;6130468;23;20176;-84
2022/03/01 01:18:52;;;;;;;18.27;15.13;;;;;;;;;;6130716;23;20179;-84
2022/03/01 01:21:21;;;;;;;21.40;16.90;;;;;;;;;;6130455;23;20175;-85
2022/03/01 01:23:49;;;;;;;22.83;16.67;;;;;;;;;;6130843;23;20180;-85
2022/03/01 01:26:17;;;;;;;17.07;13.33;;;;;;;;;;6156444;23;20172;-85
2022/03/01 01:28:46;;;;;;;21.17;15.73;;;;;;;;;;6156344;23;20229;-84
2022/03/01 01:31:16;;;;;;;19.40;16.90;;;;;;;;;;6131034;23;20176;-85
2022/03/01 01:33:44;;;;;;;19.63;17.27;;;;;;;;;;6154723;23;20246;-85
2022/03/01 01:36:14;;;;;;;20.97;16.27;;;;;;;;;;6130383;23;20184;-85
2022/03/01 01:38:42;;;;;;;24.43;16.93;;;;;;;;;;6130810;23;20184;-85
2022/03/01 01:41:11;;;;;;;21.93;17.07;;;;;;;;;;6156319;23;20183;-85
2022/03/01 01:43:39;;;;;;;15.10;11.87;;;;;;;;;;6130870;23;20184;-85
2022/03/01 01:46:07;;;;;;;21.70;15.63;;;;;;;;;;6130270;23;20178;-85
2022/03/01 01:48:36;;;;;;;19.23;15.37;;;;;;;;;;6156223;23;20180;-85
2022/03/01 01:51:04;;;;;;;20.83;14.60;;;;;;;;;;6154770;23;20227;-85
2022/03/01 01:53:34;;;;;;;14.67;9.40;;;;;;;;;;6130345;23;20175;-85
2022/03/01 01:56:03;;;;;;;24.90;16.17;;;;;;;;;;6154884;23;20450;-85
2022/03/01 01:58:31;;;;;;;17.73;14.63;;;;;;;;;;6155197;23;20175;-84
2022/03/01 02:01:00;;;;;;;19.70;14.70;;;;;;;;;;6156551;23;20176;-84
2022/03/01 02:03:29;;;;;;;10.37;9.27;;;;;;;;;;6156607;23;20329;-84
2022/03/01 02:05:58;;;;;;;20.87;15.67;;;;;;;;;;6154681;23;20178;-85
2022/03/01 02:08:30;;;;;;;20.57;14.63;;;;;;;;;;6130527;23;20183;-85
2022/03/01 02:11:00;;;;;;;13.23;9.40;;;;;;;;;;6156682;23;20172;-85
2022/03/01 02:13:28;;;;;;;17.27;13.07;;;;;;;;;;6130294;23;20176;-85
2022/03/01 02:15:57;;;;;;;19.43;14.93;;;;;;;;;;6130158;23;20187;-85
2022/03/01 02:18:26;;;;;;;19.57;15.60;;;;;;;;;;6130806;23;20176;-85
2022/03/01 02:20:55;;;;;;;22.77;15.00;;;;;;;;;;6156635;23;20230;-85
2022/03/01 02:23:24;;;;;;;18.37;14.83;;;;;;;;;;6155906;23;20171;-84
2022/03/01 02:25:52;;;;;;;22.30;16.97;;;;;;;;;;6130328;23;20182;-85
2022/03/01 02:28:21;;;;;;;23.03;18.73;;;;;;;;;;6130234;23;20179;-85
2022/03/01 02:30:49;;;;;;;20.90;16.20;;;;;;;;;;6130226;23;20180;-84
2022/03/01 02:33:18;;;;;;;21.70;15.30;;;;;;;;;;6154857;23;20219;-84
2022/03/01 02:35:46;;;;;;;20.03;17.03;;;;;;;;;;6155953;23;20206;-85
2022/03/01 02:38:16;;;;;;;16.80;14.30;;;;;;;;;;6130831;23;20191;-85
2022/03/01 02:40:44;;;;;;;18.90;14.50;;;;;;;;;;6154825;23;20176;-85
2022/03/01 02:43:13;;;;;;;12.27;10.73;;;;;;;;;;6156537;23;20182;-85
2022/03/01 02:45:41;;;;;;;20.97;16.87;;;;;;;;;;6156166;23;20175;-85
2022/03/01 02:48:10;;;;;;;9.67;6.27;;;;;;;;;;6154323;23;20180;-85
2022/03/01 02:50:38;;;;;;;17.10;12.30;;;;;;;;;;6154600;23;20191;-84
2022/03/01 02:53:08;;;;;;;17.63;10.30;;;;;;;;;;6155152;23;20183;-85
2022/03/01 02:55:40;;;;;;;21.07;14.90;;;;;;;;;;6156202;23;20194;-85
2022/03/01 02:58:08;;;;;;;8.93;6.93;;;;;;;;;;6131746;23;20172;-85
2022/03/01 03:00:40;;;;;;;16.47;12.37;;;;;;;;;;6132388;23;20243;-85
2022/03/01 03:03:08;;;;;;;18.00;11.73;;;;;;;;;;6131997;23;20194;-85
2022/03/01 03:05:37;;;;;;;22.23;16.47;;;;;;;;;;6157977;23;20168;-84
2022/03/01 03:08:07;;;;;;;19.53;14.97;;;;;;;;;;6132333;23;20183;-84
2022/03/01 03:10:35;;;;;;;15.57;12.77;;;;;;;;;;6107532;23;20180;-85
2022/03/01 03:13:06;;;;;;;17.23;11.90;;;;;;;;;;6156536;23;20263;-85
2022/03/01 03:15:34;;;;;;;17.90;15.90;;;;;;;;;;6131479;23;20200;-85
2022/03/01 03:18:03;;;;;;;19.40;14.70;;;;;;;;;;6131271;23;20186;-84
2022/03/01 03:20:31;;;;;;;17.53;13.60;;;;;;;;;;6156818;23;20180;-85
2022/03/01 03:23:00;;;;;;;15.23;12.20;;;;;;;;;;6131862;23;20184;-84
2022/03/01 03:25:28;;;;;;;18.53;14.77;;;;;;;;;;6132093;23;20172;-85
2022/03/01 03:27:56;;;;;;;14.00;10.10;;;;;;;;;;6131807;23;20175;-85
2022/03/01 03:30:26;;;;;;;20.30;14.87;;;;;;;;;;6156122;23;20179;-85
2022/03/01 03:32:55;;;;;;;20.27;13.53;;;;;;;;;;6158606;23;20179;-85
2022/03/01 03:35:23;;;;;;;16.40;12.57;;;;;;;;;;6131310;23;20204;-85
2022/03/01 03:37:52;;;;;;;19.87;14.40;;;;;;;;;;6131745;23;20196;-85
2022/03/01 03:40:21;;;;;;;27.93;14.97;;;;;;;;;;6157746;23;20183;-84
2022/03/01 03:42:52;;;;;;;18.13;13.90;;;;;;;;;;6131445;23;20179;-84
2022/03/01 03:45:20;;;;;;;16.70;11.67;;;;;;;;;;6156133;23;20329;-85
2022/03/01 03:47:51;;;;;;;25.93;18.27;;;;;;;;;;6157295;23;20172;-84
2022/03/01 03:50:19;;;;;;;21.53;14.73;;;;;;;;;;6156355;23;20258;-85
2022/03/01 03:52:48;;;;;;;20.63;14.50;;;;;;;;;;6132027;23;20175;-85
2022/03/01 03:55:16;;;;;;;20.73;14.37;;;;;;;;;;6131845;23;20183;-85
2022/03/01 03:57:45;;;;;;;13.23;7.80;;;;;;;;;;6130796;23;20179;-85
2022/03/01 04:00:16;;;;;;;15.00;12.60;;;;;;;;;;6157094;23;20176;-85
2022/03/01 04:02:46;;;;;;;20.17;14.00;;;;;;;;;;6157583;23;20192;-84
2022/03/01 04:05:16;;;;;;;17.50;13.10;;;;;;;;;;6157509;23;20175;-85
2022/03/01 04:07:45;;;;;;;18.83;16.83;;;;;;;;;;6155472;23;20187;-85
2022/03/01 04:10:14;;;;;;;18.90;15.73;;;;;;;;;;6157095;23;20227;-85
2022/03/01 04:12:43;;;;;;;19.13;14.87;;;;;;;;;;6131356;23;20183;-84
2022/03/01 04:15:11;;;;;;;20.60;15.43;;;;;;;;;;6131158;23;20186;-85
2022/03/01 04:17:41;;;;;;;20.63;16.13;;;;;;;;;;6131437;23;20187;-84
2022/03/01 04:20:10;;;;;;;18.47;14.30;;;;;;;;;;6131205;23;20204;-85
2022/03/01 04:22:40;;;;;;;21.87;18.73;;;;;;;;;;6131176;23;20294;-84
2022/03/01 04:25:10;;;;;;;19.67;14.83;;;;;;;;;;6155488;23;20179;-85
2022/03/01 04:27:38;;;;;;;17.20;15.47;;;;;;;;;;6131467;23;20203;-85
2022/03/01 04:30:07;;;;;;;16.07;13.50;;;;;;;;;;6155742;23;20238;-85
2022/03/01 04:32:36;;;;;;;15.67;10.93;;;;;;;;;;6131186;23;20172;-85
2022/03/01 04:35:08;;;;;;;16.80;14.33;;;;;;;;;;6131554;23;20207;-85
2022/03/01 04:37:36;;;;;;;18.63;15.33;;;;;;;;;;6130922;23;20198;-84
2022/03/01 04:40:07;;;;;;;19.17;10.60;;;;;;;;;;6156709;23;20176;-84
2022/03/01 04:42:36;;;;;;;17.03;14.23;;;;;;;;;;6130908;23;20208;-85
2022/03/01 04:45:06;;;;;;;16.43;11.70;;;;;;;;;;6131103;23;20195;-85
2022/03/01 04:47:34;;;;;;;16.43;11.60;;;;;;;;;;6157107;23;20201;-85
2022/03/01 04:50:03;;;;;;;21.70;16.97;;;;;;;;;;6130644;23;20180;-85
2022/03/01 04:52:32;;;;;;;16.47;12.33;;;;;;;;;;6156996;23;20179;-84
2022/03/01 04:55:00;;;;;;;14.80;13.20;;;;;;;;;;6131199;23;20227;-85
2022/03/01 04:57:30;;;;;;;18.97;12.50;;;;;;;;;;6131063;23;20188;-85
2022/03/01 04:59:58;;;;;;;20.60;13.07;;;;;;;;;;6155504;23;20180;-85
2022/03/01 05:02:27;;;;;;;15.83;13.20;;;;;;;;;;6155218;23;20196;-85
2022/03/01 05:04:55;;;;;;;25.83;17.97;;;;;;;;;;6130842;23;20262;-85
2022/03/01 05:07:24;;;;;;;19.07;14.67;;;;;;;;;;6131038;23;20267;-85
2022/03/01 05:09:52;;;;;;;21.07;16.90;;;;;;;;;;6130835;23;20179;-85
2022/03/01 05:12:20;;;;;;;17.80;13.23;;;;;;;;;;6131014;23;20191;-85
2022/03/01 05:14:50;;;;;;;18.30;12.80;;;;;;;;;;6130651;23;20172;-85
2022/03/01 05:17:19;;;;;;;15.33;13.27;;;;;;;;;;6156465;23;20188;-85
2022/03/01 05:19:47;;;;;;;12.73;8.60;;;;;;;;;;6155992;23;20180;-85
2022/03/01 05:22:15;;;;;;;12.20;10.33;;;;;;;;;;6131078;23;20198;-85
2022/03/01 05:24:44;;;;;;;16.37;10.07;;;;;;;;;;6155112;23;20208;-85
2022/03/01 05:27:12;;;;;;;19.30;16.93;;;;;;;;;;6155246;23;20179;-85
2022/03/01 05:29:41;;;;;;;15.37;8.83;;;;;;;;;;6130796;23;20182;-85
2022/03/01 05:32:11;;;;;;;16.37;13.30;;;;;;;;;;6130446;23;20183;-85
2022/03/01 05:34:39;;;;;;;17.63;13.90;;;;;;;;;;6130345;23;20210;-85
2022/03/01 05:37:08;;;;;;;19.30;15.83;;;;;;;;;;6130625;23;20202;-85
2022/03/01 05:39:36;;;;;;;18.47;16.03;;;;;;;;;;6155915;23;20180;-85
2022/03/01 05:42:05;;;;;;;17.73;12.90;;;;;;;;;;6130652;23;20179;-85
2022/03/01 05:44:33;;;;;;;18.40;16.07;;;;;;;;;;6130739;23;20231;-85
2022/03/01 05:47:01;;;;;;;20.20;15.83;;;;;;;;;;6130972;23;20174;-85
2022/03/01 05:49:31;;;;;;;15.93;11.10;;;;;;;;;;6155065;23;20180;-85
2022/03/01 05:52:00;;;;;;;6.57;5.87;;;;;;;;;;6130524;23;20176;-84
2022/03/01 05:54:28;;;;;;;16.30;10.93;;;;;;;;;;6130405;23;20180;-85
2022/03/01 05:56:57;;;;;;;14.10;9.97;;;;;;;;;;6130285;23;20198;-85
2022/03/01 05:59:25;;;;;;;17.90;13.83;;;;;;;;;;6130297;23;20258;-85
2022/03/01 06:01:53;;;;;;;16.47;12.40;;;;;;;;;;6130403;23;20183;-85
2022/03/01 06:04:22;;;;;;;11.20;7.63;;;;;;;;;;6130185;23;20172;-85
2022/03/01 06:06:52;;;;;;;17.17;14.20;;;;;;;;;;6130466;23;20232;-85
2022/03/01 06:09:20;;;;;;;18.87;14.13;;;;;;;;;;6130258;23;20179;-85
2022/03/01 06:11:49;;;;;;;15.33;10.50;;;;;;;;;;6130268;23;20180;-85
2022/03/01 06:14:17;;;;;;;16.37;10.60;;;;;;;;;;6130024;23;20171;-85
2022/03/01 06:16:47;;;;;;;16.33;13.57;;;;;;;;;;6130451;23;20206;-85
2022/03/01 06:19:15;;;;;;;15.23;12.47;;;;;;;;;;6154362;23;20171;-85
2022/03/01 06:21:44;;;;;;;17.70;10.57;;;;;;;;;;6130277;23;20176;-85
2022/03/01 06:24:14;;;;;;;2.37;2.27;;;;;;;;;;6155738;23;20256;-85
2022/03/01 06:26:43;;;;;;;8.10;6.33;;;;;;;;;;6129958;23;20169;-85
2022/03/01 06:29:11;;;;;;;15.67;12.10;;;;;;;;;;6130169;23;20186;-85
2022/03/01 06:31:40;;;;;;;15.23;10.83;;;;;;;;;;6156378;23;20218;-85
2022/03/01 06:34:11;;;;;;;11.40;7.70;;;;;;;;;;6158044;23;20210;-85
2022/03/01 06:36:40;;;;;;;19.50;14.37;;;;;;;;;;6157872;23;20176;-85
2022/03/01 06:39:09;;;;;;;16.13;12.33;;;;;;;;;;6132583;23;20172;-85
2022/03/01 06:41:39;;;;;;;12.73;9.10;;;;;;;;;;6132478;23;20179;-85
2022/03/01 06:44:07;;;;;;;21.07;13.50;;;;;;;;;;6158064;23;20234;-85
2022/03/01 06:46:36;;;;;;;8.47;6.87;;;;;;;;;;6157853;23;20184;-85
2022/03/01 06:49:04;;;;;;;3.23;3.03;;;;;;;;;;6157815;23;20211;-85
2022/03/01 06:51:33;;;;;;;21.00;4.77;;;;;;;;;;6131691;23;20176;-85
2022/03/01 06:54:01;;;;;;;13.40;9.57;;;;;;;;;;6156743;23;20175;-84
2022/03/01 06:56:30;;;;;;;2.00;1.90;;;;;;;;;;6157665;23;20180;-84
2022/03/01 06:59:00;;;;;;;7.27;4.77;;;;;;;;;;6131822;23;20199;-84
2022/03/01 07:01:28;;;;;;;3.63;3.00;;;;;;;;;;6132016;23;20176;-84
2022/03/01 07:03:57;;;;;;;12.20;8.43;;;;;;;;;;6156349;23;20200;-84
2022/03/01 07:06:26;;;;;;;18.63;12.30;;;;;;;;;;6132036;23;20186;-84
2022/03/01 07:08:54;;;;;;;14.80;10.83;;;;;;;;;;6132011;23;20187;-84
2022/03/01 07:11:24;;;;;;;14.13;10.90;;;;;;;;;;6131599;23;20175;-83
2022/03/01 07:13:52;;;;;;;3.27;3.00;;;;;;;;;;6131367;23;20185;-83
2022/03/01 07:16:22;;;;;;;13.70;7.53;;;;;;;;;;6155934;23;20179;-83
2022/03/01 07:18:53;;;;;;;12.13;9.50;;;;;;;;;;6130992;23;20250;-84
2022/03/01 07:21:21;;;;;;;7.70;6.67;;;;;;;;;;6131464;23;20176;-84
2022/03/01 07:23:50;;;;;;;1.03;1.03;;;;;;;;;;6158006;23;20192;-84
2022/03/01 07:26:19;;;;;;;3.03;1.97;;;;;;;;;;6131650;23;20176;-84
2022/03/01 07:28:47;;;;;;;3.93;3.70;;;;;;;;;;6157583;23;20173;-84
2022/03/01 07:31:16;;;;;;;5.30;3.23;;;;;;;;;;6157528;23;20178;-85
2022/03/01 07:33:46;;;;;;;2.70;2.50;;;;;;;;;;6131847;23;20181;-84
2022/03/01 07:36:14;;;;;;;1.97;1.80;;;;;;;;;;6131464;23;20181;-85
2022/03/01 07:38:43;;;;;;;1.10;1.10;;;;;;;;;;6131188;23;20195;-84
2022/03/01 07:41:11;;;;;;;2.43;2.33;;;;;;;;;;6156290;23;20186;-85
2022/03/01 07:43:40;;;;;;;6.60;5.33;;;;;;;;;;6157262;23;20247;-84
2022/03/01 07:46:11;;;;;;;3.77;3.33;;;;;;;;;;6131698;23;20177;-85
2022/03/01 07:48:41;;;;;;;7.67;6.93;;;;;;;;;;6131524;23;20176;-84
2022/03/01 07:51:11;;;;;;;3.27;2.50;;;;;;;;;;6131088;23;20179;-84
2022/03/01 07:53:40;;;;;;;3.97;3.00;;;;;;;;;;6131615;23;20203;-84
2022/03/01 07:56:09;;;;;;;2.70;2.40;;;;;;;;;;6130778;23;20176;-84
2022/03/01 07:58:37;;;;;;;2.60;2.50;;;;;;;;;;6131332;23;20207;-84
2022/03/01 08:01:06;;;;;;;3.00;2.83;;;;;;;;;;6131324;23;20243;-84
2022/03/01 08:03:35;;;;;;;0.70;0.70;;;;;;;;;;6131595;23;20196;-84
2022/03/01 08:06:04;;;;;;;2.97;1.93;;;;;;;;;;6131307;23;20200;-84
2022/03/01 08:08:34;;;;;;;0.70;0.70;;;;;;;;;;6130861;23;20200;-83
2022/03/01 08:11:04;;;;;;;1.03;1.03;;;;;;;;;;6131082;23;20246;-84
2022/03/01 08:13:42;;;;;;;6.33;5.77;;;;;;;;;;6131283;23;20182;-84
2022/03/01 08:16:14;;;;;;;1.77;1.73;;;;;;;;;;6156128;23;20187;-83
2022/03/01 08:18:42;;;;;;;12.43;8.30;;;;;;;;;;6131144;23;20267;-84
2022/03/01 08:21:11;;;;;;;16.13;11.23;;;;;;;;;;6157216;23;20172;-84
2022/03/01 08:23:42;;;;;;;21.53;10.07;;;;;;;;;;6155146;23;20173;-84
2022/03/01 08:26:11;;;;;;;2.90;2.70;;;;;;;;;;6130958;23;20180;-84
2022/03/01 08:28:40;;;;;;;6.70;2.93;;;;;;;;;;6130801;23;20263;-84
2022/03/01 08:31:09;;;;;;;12.63;7.70;;;;;;;;;;6131060;23;20204;-84
2022/03/01 08:33:37;;;;;;;13.97;7.07;;;;;;;;;;6130948;23;20183;-83
2022/03/01 08:36:08;;;;;;;7.80;5.23;;;;;;;;;;6155363;23;20243;-84
2022/03/01 08:38:37;;;;;;;6.60;4.67;;;;;;;;;;6155644;23;20223;-84
2022/03/01 08:41:13;;;;;;;10.40;8.10;;;;;;;;;;6131037;23;20182;-84
2022/03/01 08:43:41;;;;;;;4.70;4.30;;;;;;;;;;6131171;23;20176;-84
2022/03/01 08:46:11;;;;;;;7.23;5.60;;;;;;;;;;6131180;23;20208;-84
2022/03/01 08:48:40;;;;;;;13.07;10.27;;;;;;;;;;6130980;23;20171;-84
2022/03/01 08:51:09;;;;;;;18.10;10.73;;;;;;;;;;6155687;23;20204;-84
2022/03/01 08:53:38;;;;;;;6.50;5.87;;;;;;;;;;6131296;23;20180;-84
2022/03/01 08:56:06;;;;;;;10.00;6.90;;;;;;;;;;6129971;23;20185;-84
2022/03/01 08:58:36;;;;;;;1.13;1.13;;;;;;;;;;6130997;23;20284;-84
2022/03/01 09:01:05;;;;;;;20.47;12.73;;;;;;;;;;6131062;23;20188;-84
2022/03/01 09:03:33;;;;;;;11.37;8.83;;;;;;;;;;6130623;23;20196;-84
2022/03/01 09:06:17;;;;;;;4.07;3.77;;;;;;;;;;6130928;23;20210;-84
2022/03/01 09:08:46;;;;;;;6.03;4.40;;;;;;;;;;6130361;23;20176;-84
2022/03/01 09:11:15;;;;;;;14.93;11.47;;;;;;;;;;6130695;23;20179;-84
2022/03/01 09:13:45;;;;;;;13.73;11.03;;;;;;;;;;6130916;23;20176;-84
2022/03/01 09:16:14;;;;;;;10.53;7.50;;;;;;;;;;6155682;23;20175;-85
2022/03/01 09:18:43;;;;;;;9.70;7.03;;;;;;;;;;6130445;23;20215;-84
2022/03/01 09:21:11;;;;;;;11.03;8.87;;;;;;;;;;6130491;23;20172;-85
2022/03/01 09:23:42;;;;;;;18.17;8.97;;;;;;;;;;6130696;23;20176;-85
2022/03/01 09:26:11;;;;;;;8.67;5.93;;;;;;;;;;6130770;23;20176;-85
2022/03/01 09:28:39;;;;;;;2.33;2.13;;;;;;;;;;6130886;23;20172;-85
2022/03/01 09:31:10;;;;;;;2.90;2.70;;;;;;;;;;6155267;23;20180;-85
2022/03/01 09:33:42;;;;;;;4.43;4.10;;;;;;;;;;6130081;23;20177;-85
2022/03/01 09:36:12;;;;;;;1.90;1.47;;;;;;;;;;6130926;23;20243;-85
2022/03/01 09:38:40;;;;;;;2.07;1.97;;;;;;;;;;6130729;23;20200;-85
2022/03/01 09:41:09;;;;;;;2.80;2.60;;;;;;;;;;6130616;23;20182;-85
2022/03/01 09:43:38;;;;;;;10.83;7.87;;;;;;;;;;6130209;23;20188;-85
2022/03/01 09:46:06;;;;;;;16.07;11.37;;;;;;;;;;6130113;23;20176;-84
2022/03/01 09:48:37;;;;;;;7.40;6.40;;;;;;;;;;6156241;23;20256;-85
2022/03/01 09:51:06;;;;;;;11.83;8.67;;;;;;;;;;6154629;23;20196;-85
2022/03/01 09:53:36;;;;;;;8.10;5.33;;;;;;;;;;6130508;23;20196;-85
2022/03/01 09:56:07;;;;;;;9.33;7.87;;;;;;;;;;6130233;23;20183;-85
2022/03/01 09:58:38;;;;;;;6.50;4.13;;;;;;;;;;6130624;23;20196;-85
2022/03/01 10:01:07;;;;;;;8.30;7.00;;;;;;;;;;6155386;23;20176;-85
2022/03/01 10:03:48;;;;;;;13.03;9.10;;;;;;;;;;6154955;23;20201;-85
2022/03/01 10:06:19;;;;;;;16.97;12.83;;;;;;;;;;6131346;23;20200;-85
2022/03/01 10:08:52;;;;;;;13.77;9.97;;;;;;;;;;6132204;23;20179;-85
2022/03/01 10:11:20;;;;;;;19.83;14.57;;;;;;;;;;6132693;23;20223;-85
2022/03/01 10:13:49;;;;;;;14.90;10.37;;;;;;;;;;6156458;23;20188;-84
2022/03/01 10:16:19;;;;;;;14.90;10.70;;;;;;;;;;6156916;23;20180;-85
2022/03/01 10:18:53;;;;;;;17.17;11.77;;;;;;;;;;6132623;23;20231;-85
2022/03/01 10:21:22;;;;;;;14.93;11.60;;;;;;;;;;6157361;23;20265;-85
2022/03/01 10:23:52;;;;;;;14.00;7.40;;;;;;;;;;6131889;23;20180;-85
2022/03/01 10:26:21;;;;;;;4.70;4.20;;;;;;;;;;6132573;23;20256;-85
2022/03/01 10:28:50;;;;;;;2.23;2.13;;;;;;;;;;6156878;23;20176;-86
2022/03/01 10:31:22;;;;;;;3.83;3.13;;;;;;;;;;6132601;23;20200;-85
2022/03/01 10:34:01;;;;;;;3.77;3.43;;;;;;;;;;6132456;23;20187;-85
2022/03/01 10:36:31;;;;;;;10.30;8.00;;;;;;;;;;6132151;23;20207;-85
2022/03/01 10:39:02;;;;;;;8.30;6.57;;;;;;;;;;6131950;23;20222;-85
2022/03/01 10:41:31;;;;;;;14.07;9.00;;;;;;;;;;6132099;23;20176;-85
2022/03/01 10:44:09;;;;;;;17.20;13.77;;;;;;;;;;6131780;23;20184;-85
2022/03/01 10:46:46;;;;;;;18.57;14.70;;;;;;;;;;6131808;23;20187;-85
2022/03/01 10:49:17;;;;;;;16.10;12.70;;;;;;;;;;6131834;23;20179;-86
2022/03/01 10:51:50;;;;;;;10.63;8.80;;;;;;;;;;6132291;23;20466;-86
2022/03/01 10:54:26;;;;;;;19.90;15.20;;;;;;;;;;6132175;23;20182;-85
2022/03/01 10:56:55;;;;;;;25.33;17.93;;;;;;;;;;6156404;23;20188;-85
2022/03/01 10:59:25;;;;;;;7.83;6.17;;;;;;;;;;6132204;23;20197;-85
2022/03/01 11:01:53;;;;;;;7.57;6.80;;;;;;;;;;6156708;23;20223;-85
2022/03/01 11:04:25;;;;;;;4.47;3.87;;;;;;;;;;6132046;23;20178;-86
2022/03/01 11:06:54;;;;;;;3.83;3.50;;;;;;;;;;6132139;23;20187;-85
2022/03/01 11:09:25;;;;;;;18.60;14.27;;;;;;;;;;6156320;23;20200;-85
2022/03/01 11:11:54;;;;;;;11.30;6.00;;;;;;;;;;6156535;23;20262;-85
2022/03/01 11:14:25;;;;;;;4.53;4.23;;;;;;;;;;6132105;23;20176;-85
2022/03/01 11:17:00;;;;;;;11.83;6.37;;;;;;;;;;6156402;23;20184;-86
2022/03/01 11:19:45;;;;;;;4.97;4.47;;;;;;;;;;6156163;23;20207;-86
2022/03/01 11:22:20;;;;;;;16.47;11.13;;;;;;;;;;6132088;23;20188;-85
2022/03/01 11:24:49;;;;;;;17.33;11.67;;;;;;;;;;6131924;23;20263;-86
2022/03/01 11:27:22;;;;;;;7.80;7.07;;;;;;;;;;6156507;23;20185;-86
2022/03/01 11:29:51;;;;;;;4.27;3.90;;;;;;;;;;6132119;23;20228;-85
2022/03/01 11:32:24;;;;;;;18.47;11.33;;;;;;;;;;6131123;23;20192;-86
2022/03/01 11:35:03;;;;;;;4.90;4.40;;;;;;;;;;6131493;23;20217;-86
2022/03/01 11:37:31;;;;;;;4.53;4.17;;;;;;;;;;6131171;23;20204;-86
2022/03/01 11:40:04;;;;;;;4.07;3.70;;;;;;;;;;6131272;23;20249;-86
2022/03/01 11:42:33;;;;;;;6.07;4.97;;;;;;;;;;6131893;23;20179;-86
2022/03/01 11:45:09;;;;;;;3.87;3.60;;;;;;;;;;6131767;23;20656;-86
2022/03/01 11:47:38;;;;;;;8.30;4.90;;;;;;;;;;6131619;23;20176;-86
2022/03/01 11:50:24;;;;;;;3.77;3.30;;;;;;;;;;6132106;23;20174;-87
2022/03/01 11:52:57;;;;;;;7.57;4.40;;;;;;;;;;6131095;23;20185;-86
2022/03/01 11:55:33;;;;;;;2.53;2.33;;;;;;;;;;6156554;23;20184;-86
2022/03/01 11:58:02;;;;;;;14.43;6.93;;;;;;;;;;6131966;23;20183;-86
2022/03/01 12:00:33;;;;;;;18.33;12.53;;;;;;;;;;6131891;23;20193;-86
2022/03/01 12:03:07;;;;;;;9.77;5.30;;;;;;;;;;6131308;23;20202;-84
2022/03/01 12:05:45;;;;;;;3.70;3.47;;;;;;;;;;6131456;23;20178;-86
2022/03/01 12:08:14;;;;;;;6.83;4.50;;;;;;;;;;6131449;23;20178;-86
2022/03/01 12:10:54;;;;;;;3.57;3.27;;;;;;;;;;6131499;23;20209;-86
2022/03/01 12:13:34;;;;;;;3.53;3.27;;;;;;;;;;6131433;23;20188;-86
2022/03/01 12:16:03;;;;;;;19.33;12.80;;;;;;;;;;6131357;23;20182;-85
2022/03/01 12:18:33;;;;;;;25.37;13.87;;;;;;;;;;6131863;23;20176;-87
2022/03/01 12:21:05;;;;;;;11.30;8.80;;;;;;;;;;6155447;23;20261;-86
2022/03/01 12:23:39;;;;;;;6.93;6.33;;;;;;;;;;6131537;23;20184;-86
2022/03/01 12:26:09;;;;;;;15.33;11.10;;;;;;;;;;6131386;23;20173;-86
2022/03/01 12:28:39;;;;;;;2.40;2.33;;;;;;;;;;6155708;23;20182;-86
2022/03/01 12:31:08;;;;;;;6.93;6.23;;;;;;;;;;6130674;23;20174;-86
2022/03/01 12:33:37;;;;;;;3.57;3.37;;;;;;;;;;6130824;23;20178;-86
2022/03/01 12:36:08;;;;;;;3.23;3.03;;;;;;;;;;6130692;23;20205;-86
2022/03/01 12:38:39;;;;;;;1.80;1.53;;;;;;;;;;6131345;23;20181;-86
2022/03/01 12:41:11;;;;;;;2.03;1.80;;;;;;;;;;6130635;23;20192;-86
2022/03/01 12:43:42;;;;;;;5.17;4.73;;;;;;;;;;6131397;23;20205;-86
2022/03/01 12:46:12;;;;;;;1.40;1.40;;;;;;;;;;6131389;23;20212;-86
2022/03/01 12:48:44;;;;;;;8.97;6.23;;;;;;;;;;6130727;23;20222;-86
2022/03/01 12:51:14;;;;;;;4.60;4.13;;;;;;;;;;6131279;23;20178;-86
2022/03/01 12:53:51;;;;;;;3.47;3.23;;;;;;;;;;6130976;23;20177;-86
2022/03/01 12:56:21;;;;;;;2.50;2.40;;;;;;;;;;6131339;23;20376;-86
2022/03/01 12:58:52;;;;;;;6.97;5.03;;;;;;;;;;6131146;23;20185;-86
2022/03/01 13:01:22;;;;;;;4.77;4.37;;;;;;;;;;6155559;23;20251;-86
2022/03/01 13:03:53;;;;;;;8.77;7.90;;;;;;;;;;6130783;23;20201;-86
2022/03/01 13:06:23;;;;;;;7.20;4.70;;;;;;;;;;6155692;23;20209;-86
2022/03/01 13:08:53;;;;;;;7.33;5.87;;;;;;;;;;6130821;23;20233;-86
2022/03/01 13:11:22;;;;;;;12.83;8.67;;;;;;;;;;6130934;23;20175;-86
2022/03/01 13:13:52;;;;;;;9.50;5.50;;;;;;;;;;6155068;23;20350;-86
2022/03/01 13:16:22;;;;;;;6.57;5.43;;;;;;;;;;6130739;23;20228;-86
2022/03/01 13:18:55;;;;;;;5.07;4.73;;;;;;;;;;6155505;23;20228;-86
2022/03/01 13:21:30;;;;;;;10.40;9.20;;;;;;;;;;6130828;23;20202;-86
2022/03/01 13:24:01;;;;;;;3.03;2.83;;;;;;;;;;6130890;23;20181;-86
2022/03/01 13:26:36;;;;;;;2.57;2.43;;;;;;;;;;6130783;23;20232;-86
2022/03/01 13:29:09;;;;;;;16.87;8.27;;;;;;;;;;6155424;23;20179;-87
2022/03/01 13:32:02;;;;;;;2.73;2.63;;;;;;;;;;6111924;23;20175;-86
2022/03/01 13:34:31;;;;;;;4.33;4.00;;;;;;;;;;6154822;23;20182;-86
2022/03/01 13:37:02;;;;;;;11.63;8.10;;;;;;;;;;6130845;23;20186;-86
2022/03/01 13:39:35;;;;;;;3.33;3.10;;;;;;;;;;6131033;23;20217;-86
2022/03/01 13:42:05;;;;;;;3.70;3.50;;;;;;;;;;6154790;23;20221;-85
2022/03/01 13:44:42;;;;;;;3.40;2.47;;;;;;;;;;6154751;23;20237;-86
2022/03/01 13:47:13;;;;;;;6.53;5.97;;;;;;;;;;6130431;23;20224;-85
2022/03/01 13:49:43;;;;;;;1.63;1.63;;;;;;;;;;6155236;23;20208;-86
2022/03/01 13:52:14;;;;;;;6.00;4.07;;;;;;;;;;6130376;23;20175;-86
2022/03/01 13:54:46;;;;;;;4.43;3.33;;;;;;;;;;6130686;23;20187;-86
2022/03/01 13:57:26;;;;;;;5.40;3.90;;;;;;;;;;6130137;23;20183;-86
2022/03/01 13:59:56;;;;;;;3.83;3.13;;;;;;;;;;6130728;23;20187;-86
2022/03/01 14:02:25;;;;;;;2.60;2.47;;;;;;;;;;6155152;23;20207;-86
2022/03/01 14:05:01;;;;;;;8.97;1.73;;;;;;;;;;6155036;23;20207;-86
2022/03/01 14:07:31;;;;;;;9.30;7.87;;;;;;;;;;6155136;23;20210;-85
2022/03/01 14:10:00;;;;;;;3.67;3.47;;;;;;;;;;6130341;23;20186;-86
2022/03/01 14:12:34;;;;;;;3.90;3.60;;;;;;;;;;6130723;23;20248;-86
2022/03/01 14:15:16;;;;;;;4.00;3.33;;;;;;;;;;6130587;23;20178;-86
2022/03/01 14:17:55;;;;;;;12.77;9.03;;;;;;;;;;6155100;23;20269;-86
2022/03/01 14:20:24;;;;;;;10.03;7.20;;;;;;;;;;6130852;23;20174;-87
2022/03/01 14:23:03;;;;;;;3.83;3.47;;;;;;;;;;6130066;23;20228;-86
2022/03/01 14:25:35;;;;;;;2.43;2.27;;;;;;;;;;6130578;23;20178;-86
2022/03/01 14:28:10;;;;;;;6.40;4.67;;;;;;;;;;6154890;23;20205;-87
2022/03/01 14:30:42;;;;;;;11.00;6.80;;;;;;;;;;6130220;23;20258;-86
2022/03/01 14:33:20;;;;;;;3.33;3.13;;;;;;;;;;6130299;23;20186;-87
2022/03/01 14:36:01;;;;;;;6.37;4.30;;;;;;;;;;6130142;23;20211;-87
2022/03/01 14:38:39;;;;;;;5.87;5.23;;;;;;;;;;6130728;23;20346;-87
2022/03/01 14:41:19;;;;;;;2.50;2.40;;;;;;;;;;6130014;23;20248;-87
2022/03/01 14:43:51;;;;;;;6.30;3.80;;;;;;;;;;6130340;23;20245;-88
2022/03/01 14:46:31;;;;;;;3.40;3.10;;;;;;;;;;6130619;23;20181;-83